Time;durP1;ratioP1;P1;durP2;ratioP2;P2;SDS_P1;SDS_P2;PMS_P1;PMS_P2;Temp;Humidity;BMP_temperature;BMP_pressure;BME280_temperature;BME280_humidity;BME280_pressure;Samples;Min_cycle;Max_cycle;Signal;HPM_P1;HPM_P2
2023/04/26 00:01:59;;;;;;;8.32;4.07;;;;;;;6.60;61.62;97288.94;4931428;28;20342;-77
2023/04/26 00:04:27;;;;;;;3.78;2.72;;;;;;;6.59;62.02;97302.91;4964595;28;20258;-77
2023/04/26 00:06:53;;;;;;;8.07;2.85;;;;;;;6.74;60.67;97305.91;4948573;28;20635;-77
2023/04/26 00:09:19;;;;;;;5.63;2.90;;;;;;;6.81;60.15;97305.84;4963601;28;20210;-77
2023/04/26 00:11:44;;;;;;;4.70;2.80;;;;;;;6.59;60.91;97297.72;4945924;28;20483;-78
2023/04/26 00:14:10;;;;;;;6.15;2.50;;;;;;;6.51;60.86;97296.19;4963839;28;20245;-76
2023/04/26 00:16:35;;;;;;;4.28;3.10;;;;;;;6.49;61.77;97293.03;4945020;28;20389;-77
2023/04/26 00:19:01;;;;;;;4.28;2.90;;;;;;;6.48;61.17;97288.88;4966111;28;20145;-78
2023/04/26 00:21:27;;;;;;;5.05;3.00;;;;;;;6.41;61.83;97291.53;4927857;28;20122;-77
2023/04/26 00:23:52;;;;;;;3.70;2.80;;;;;;;6.35;62.14;97287.22;4948280;28;20392;-77
2023/04/26 00:26:18;;;;;;;6.28;3.35;;;;;;;6.33;61.95;97297.75;4946030;28;20139;-77
2023/04/26 00:28:43;;;;;;;5.07;2.95;;;;;;;6.36;62.04;97301.72;4964286;28;20397;-77
2023/04/26 00:31:14;;;;;;;4.78;2.72;;;;;;;6.30;61.66;97305.16;4930531;28;20193;-77
2023/04/26 00:33:39;;;;;;;5.50;3.20;;;;;;;6.16;61.89;97292.34;4948288;28;20097;-77
2023/04/26 00:36:05;;;;;;;4.85;3.13;;;;;;;6.11;62.07;97297.38;4943936;28;20168;-77
2023/04/26 00:38:31;;;;;;;5.10;3.25;;;;;;;6.01;63.07;97294.47;4949191;28;20277;-77
2023/04/26 00:40:56;;;;;;;5.82;3.00;;;;;;;5.99;62.75;97289.50;4941515;28;20254;-77
2023/04/26 00:43:22;;;;;;;5.85;3.13;;;;;;;5.97;62.80;97295.91;4945224;28;20380;-77
2023/04/26 00:45:48;;;;;;;6.63;3.67;;;;;;;5.88;63.54;97294.53;4928774;28;20161;-77
2023/04/26 00:48:14;;;;;;;7.05;2.72;;;;;;;5.89;63.16;97298.72;4956210;28;20606;-77
2023/04/26 00:50:40;;;;;;;6.82;3.13;;;;;;;5.88;64.06;97284.19;4941051;28;20180;-77
2023/04/26 00:53:07;;;;;;;5.55;3.20;;;;;;;5.88;63.04;97297.13;4946916;28;20276;-77
2023/04/26 00:55:33;;;;;;;6.13;3.28;;;;;;;5.84;63.41;97295.97;4932213;28;20366;-77
2023/04/26 00:57:58;;;;;;;6.43;3.35;;;;;;;5.82;64.07;97296.97;4948809;28;20732;-77
2023/04/26 01:00:24;;;;;;;6.30;3.08;;;;;;;5.79;63.36;97294.81;4940794;28;20202;-77
2023/04/26 01:05:52;;;;;;;6.88;3.20;;;;;;;5.72;63.97;97290.69;4882712;28;20356;-87
2023/04/26 01:08:19;;;;;;;6.45;3.55;;;;;;;5.66;62.83;97288.97;4898313;28;20271;-86
2023/04/26 01:10:46;;;;;;;6.70;4.32;;;;;;;5.54;62.80;97286.25;4906092;28;20207;-87
2023/04/26 01:13:13;;;;;;;6.85;4.43;;;;;;;5.67;62.50;97291.31;4899348;28;20223;-87
2023/04/26 01:15:44;;;;;;;8.45;5.47;;;;;;;5.72;62.79;97285.53;4874410;28;20528;-87
2023/04/26 01:18:10;;;;;;;9.55;5.72;;;;;;;5.54;62.92;97281.88;4895805;28;20224;-87
2023/04/26 01:20:35;;;;;;;11.60;6.00;;;;;;;5.49;62.68;97284.28;4881854;28;20386;-87
2023/04/26 01:23:01;;;;;;;9.77;5.10;;;;;;;5.50;62.65;97282.50;4905168;28;20231;-87
2023/04/26 01:25:26;;;;;;;7.53;4.20;;;;;;;5.24;63.38;97256.66;4893577;28;20624;-87
2023/04/26 01:27:52;;;;;;;9.07;4.65;;;;;;;5.15;63.36;97252.72;4867838;28;20291;-87
2023/04/26 01:30:17;;;;;;;6.60;3.30;;;;;;;5.22;63.81;97275.91;4860460;28;20619;-87
2023/04/26 01:32:42;;;;;;;4.95;3.45;;;;;;;5.34;64.90;97276.03;4907247;28;20107;-87
2023/04/26 01:35:08;;;;;;;5.72;3.67;;;;;;;5.37;63.71;97284.16;4898799;28;20291;-87
2023/04/26 01:37:33;;;;;;;5.20;3.33;;;;;;;5.14;63.54;97256.31;4880291;28;20211;-87
2023/04/26 01:39:58;;;;;;;6.72;3.17;;;;;;;5.12;64.39;97272.97;4889982;28;20193;-87
2023/04/26 01:42:24;;;;;;;5.13;3.20;;;;;;;5.11;64.16;97256.72;4887779;28;20279;-87
2023/04/26 01:44:52;;;;;;;6.10;4.05;;;;;;;5.35;63.39;97283.59;4906900;28;20161;-88
2023/04/26 01:47:17;;;;;;;9.30;5.80;;;;;;;5.33;63.25;97290.75;4862360;28;20243;-87
2023/04/26 01:49:43;;;;;;;9.05;5.43;;;;;;;5.27;63.51;97285.63;4874471;28;20500;-87
2023/04/26 01:52:08;;;;;;;9.82;5.35;;;;;;;5.07;63.45;97266.66;4891077;28;20543;-87
2023/04/26 01:54:34;;;;;;;7.18;4.72;;;;;;;5.12;63.16;97285.88;4859916;28;20227;-87
2023/04/26 01:56:59;;;;;;;5.93;4.10;;;;;;;5.11;63.23;97286.91;4909396;28;20178;-87
2023/04/26 01:59:25;;;;;;;6.57;4.35;;;;;;;5.01;63.51;97293.28;4872909;29;20268;-87
2023/04/26 02:01:51;;;;;;;10.93;4.18;;;;;;;5.03;63.53;97290.50;4860270;28;20582;-87
2023/04/26 02:04:16;;;;;;;5.25;3.40;;;;;;;5.04;63.15;97279.97;4890686;28;20203;-87
2023/04/26 02:06:41;;;;;;;7.75;3.35;;;;;;;5.00;63.93;97283.16;4913325;28;20652;-87
2023/04/26 02:09:08;;;;;;;6.68;3.40;;;;;;;5.00;64.41;97285.75;4890316;28;20226;-87
2023/04/26 02:11:34;;;;;;;4.13;2.92;;;;;;;4.84;64.02;97256.06;4884050;28;20328;-87
2023/04/26 02:14:00;;;;;;;5.95;3.03;;;;;;;5.12;63.69;97283.31;4911725;28;20574;-88
2023/04/26 02:16:25;;;;;;;6.35;3.17;;;;;;;5.15;63.47;97280.31;4896662;28;20194;-87
2023/04/26 02:18:54;;;;;;;5.50;3.15;;;;;;;5.11;63.52;97276.56;4895840;28;20281;-88
2023/04/26 02:21:20;;;;;;;5.05;3.30;;;;;;;5.05;63.61;97279.00;4897040;28;20730;-87
2023/04/26 02:23:46;;;;;;;5.03;3.00;;;;;;;4.94;63.49;97261.56;4913780;28;20609;-87
2023/04/26 02:26:12;;;;;;;4.78;3.45;;;;;;;4.91;63.72;97249.06;4902614;28;20209;-87
2023/04/26 02:28:37;;;;;;;6.72;3.30;;;;;;;4.95;63.95;97272.66;4893658;28;20211;-88
2023/04/26 02:31:03;;;;;;;9.77;3.00;;;;;;;5.01;63.78;97282.19;4908314;28;20210;-87
2023/04/26 02:33:28;;;;;;;4.15;2.67;;;;;;;4.82;63.90;97260.63;4883220;28;20362;-87
2023/04/26 02:35:54;;;;;;;5.05;3.10;;;;;;;4.98;63.68;97278.19;4887268;28;20655;-88
2023/04/26 02:38:19;;;;;;;6.43;2.70;;;;;;;4.91;63.81;97272.28;4932204;28;20404;-88
2023/04/26 02:40:44;;;;;;;6.78;3.03;;;;;;;4.78;64.07;97254.28;4881031;28;20359;-87
2023/04/26 02:43:10;;;;;;;6.55;2.80;;;;;;;5.06;63.58;97292.66;4909913;28;20187;-87
2023/04/26 02:45:42;;;;;;;7.38;3.42;;;;;;;5.22;63.73;97284.44;4884577;28;20611;-88
2023/04/26 02:48:08;;;;;;;5.65;3.20;;;;;;;5.14;63.94;97281.31;4884344;28;20186;-88
2023/04/26 02:50:33;;;;;;;5.07;2.60;;;;;;;5.05;63.36;97271.25;4881944;28;20207;-88
2023/04/26 02:52:59;;;;;;;6.82;3.38;;;;;;;4.85;65.05;97257.66;4892622;28;20300;-88
2023/04/26 02:55:25;;;;;;;5.55;2.83;;;;;;;4.67;64.22;97246.19;4900745;28;20183;-87
2023/04/26 02:57:50;;;;;;;5.28;2.75;;;;;;;5.02;64.08;97287.13;4914070;28;20203;-88
2023/04/26 03:00:16;;;;;;;6.00;3.67;;;;;;;5.00;63.02;97293.47;4883616;28;20096;-88
2023/04/26 03:02:41;;;;;;;8.25;3.33;;;;;;;4.81;63.02;97280.44;4884715;28;20612;-88
2023/04/26 03:05:08;;;;;;;7.28;3.60;;;;;;;4.74;63.54;97290.00;4900847;28;20159;-88
2023/04/26 03:07:33;;;;;;;7.35;3.33;;;;;;;4.55;63.60;97263.28;4912655;28;20349;-88
2023/04/26 03:09:59;;;;;;;5.32;3.30;;;;;;;4.47;64.01;97248.03;4923298;28;20607;-88
2023/04/26 03:12:25;;;;;;;7.30;3.88;;;;;;;4.49;63.37;97254.59;4889544;28;20222;-88
2023/04/26 03:14:50;;;;;;;5.75;2.95;;;;;;;4.68;63.52;97276.16;4937441;28;20182;-88
2023/04/26 03:17:17;;;;;;;7.68;3.42;;;;;;;4.60;63.89;97260.88;4910398;28;20204;-88
2023/04/26 03:19:42;;;;;;;5.82;3.10;;;;;;;4.75;63.73;97289.03;4896666;28;20636;-88
2023/04/26 03:22:07;;;;;;;6.20;3.63;;;;;;;4.53;63.99;97247.25;4923536;28;20100;-87
2023/04/26 03:24:33;;;;;;;6.85;3.75;;;;;;;4.67;63.94;97266.81;4937571;28;20265;-88
2023/04/26 03:26:59;;;;;;;5.90;3.85;;;;;;;4.35;64.34;97211.78;4939819;28;20214;-88
2023/04/26 03:29:24;;;;;;;7.00;4.18;;;;;;;4.52;63.83;97248.22;4897101;28;20100;-88
2023/04/26 03:31:50;;;;;;;8.10;3.75;;;;;;;4.59;63.33;97258.50;4884329;28;20092;-88
2023/04/26 03:34:15;;;;;;;8.88;4.35;;;;;;;4.32;64.33;97230.25;4917702;28;20150;-88
2023/04/26 03:36:40;;;;;;;7.32;4.28;;;;;;;4.50;63.25;97266.47;4950600;28;20217;-88
2023/04/26 03:39:06;;;;;;;8.35;4.45;;;;;;;4.48;64.12;97262.53;4919028;28;20288;-88
2023/04/26 03:41:38;;;;;;;7.32;4.30;;;;;;;4.51;63.42;97259.53;4902668;28;20172;-88
2023/04/26 03:44:03;;;;;;;9.18;4.80;;;;;;;4.27;63.43;97230.84;4955449;28;20031;-87
2023/04/26 03:46:29;;;;;;;15.07;7.90;;;;;;;4.00;63.91;97200.97;4907930;28;20152;-88
2023/04/26 03:48:54;;;;;;;23.35;9.65;;;;;;;4.15;64.76;97234.22;4916101;28;20266;-87
2023/04/26 03:51:20;;;;;;;13.90;7.43;;;;;;;4.08;64.04;97226.53;4920764;28;20030;-88
2023/04/26 03:53:47;;;;;;;11.95;6.63;;;;;;;4.00;64.10;97219.03;4920786;28;20366;-89
2023/04/26 03:56:13;;;;;;;12.43;4.35;;;;;;;4.38;63.43;97246.69;4976451;28;20104;-87
2023/04/26 03:58:38;;;;;;;7.90;3.88;;;;;;;4.19;62.45;97233.63;4905913;28;20380;-87
2023/04/26 04:01:04;;;;;;;6.18;3.53;;;;;;;4.20;62.06;97209.47;4955356;28;20151;-88
2023/04/26 04:03:29;;;;;;;8.18;2.92;;;;;;;4.27;62.07;97222.34;4954426;28;20035;-88
2023/04/26 04:05:55;;;;;;;5.82;2.85;;;;;;;3.99;62.21;97217.44;4942898;28;20052;-87
2023/04/26 04:08:20;;;;;;;3.30;2.35;;;;;;;4.09;63.00;97241.78;4911905;28;20179;-88
2023/04/26 04:10:45;;;;;;;4.00;2.30;;;;;;;4.07;63.06;97258.44;4930997;28;20270;-88
2023/04/26 04:13:11;;;;;;;6.00;2.55;;;;;;;4.12;63.20;97263.78;4923418;28;20298;-88
2023/04/26 04:15:36;;;;;;;4.88;2.47;;;;;;;4.11;63.20;97237.25;4924638;28;20208;-88
2023/04/26 04:18:02;;;;;;;7.07;2.97;;;;;;;4.10;63.39;97227.91;4955718;28;20270;-88
2023/04/26 04:20:28;;;;;;;4.63;2.60;;;;;;;4.20;63.52;97239.56;4943888;28;20607;-87
2023/04/26 04:22:55;;;;;;;5.93;2.78;;;;;;;4.29;63.26;97267.53;4945802;28;20352;-87
2023/04/26 04:25:21;;;;;;;5.07;2.47;;;;;;;4.44;62.88;97258.78;4927137;28;20085;-88
2023/04/26 04:27:47;;;;;;;5.55;2.65;;;;;;;4.28;61.97;97229.06;4940184;28;20290;-87
2023/04/26 04:30:13;;;;;;;4.78;2.28;;;;;;;4.18;62.18;97246.72;4952900;28;20163;-88
2023/04/26 04:32:39;;;;;;;3.90;2.72;;;;;;;4.10;63.28;97260.63;4953468;28;20038;-88
2023/04/26 04:35:06;;;;;;;4.68;2.50;;;;;;;3.84;62.89;97236.47;4939096;28;20293;-89
2023/04/26 04:37:34;;;;;;;7.07;3.58;;;;;;;3.91;64.80;97255.28;4953459;28;20120;-88
2023/04/26 04:40:00;;;;;;;5.07;2.75;;;;;;;3.94;65.23;97275.50;4916589;28;20156;-88
2023/04/26 04:42:27;;;;;;;3.47;2.35;;;;;;;3.73;64.43;97226.75;4970031;28;20175;-89
2023/04/26 04:44:55;;;;;;;6.95;2.85;;;;;;;4.06;64.40;97269.72;4948477;28;20100;-88
2023/04/26 04:47:21;;;;;;;4.60;2.55;;;;;;;4.10;64.00;97271.72;4933145;28;20195;-88
2023/04/26 04:49:46;;;;;;;4.93;2.53;;;;;;;3.92;64.36;97238.84;4939971;28;20188;-88
2023/04/26 04:52:12;;;;;;;5.88;3.25;;;;;;;4.00;64.64;97237.06;4902261;28;20027;-88
2023/04/26 04:54:37;;;;;;;6.45;3.05;;;;;;;4.24;64.76;97285.38;4905042;28;20220;-88
2023/04/26 04:57:03;;;;;;;11.15;4.30;;;;;;;4.22;64.76;97287.38;4953505;28;20151;-88
2023/04/26 04:59:28;;;;;;;11.45;4.88;;;;;;;4.08;64.92;97273.69;4921766;28;20061;-88
2023/04/26 05:01:54;;;;;;;10.07;4.80;;;;;;;4.00;66.06;97280.84;4940593;28;20267;-88
2023/04/26 05:04:20;;;;;;;9.70;4.53;;;;;;;4.07;66.29;97272.09;4929379;28;20220;-88
2023/04/26 05:06:45;;;;;;;8.35;3.90;;;;;;;4.17;66.42;97282.00;4963275;28;20599;-88
2023/04/26 05:09:11;;;;;;;9.88;4.10;;;;;;;4.48;65.26;97290.88;4926871;28;20036;-88
2023/04/26 05:11:36;;;;;;;7.43;3.55;;;;;;;4.43;65.44;97275.22;4975094;28;20095;-87
2023/04/26 05:14:02;;;;;;;8.82;3.95;;;;;;;4.43;65.13;97259.75;4916541;28;20123;-87
2023/04/26 05:16:27;;;;;;;8.18;3.45;;;;;;;4.70;65.23;97294.00;4948154;28;20178;-87
2023/04/26 05:18:53;;;;;;;10.18;4.25;;;;;;;4.92;64.54;97309.19;4910874;28;20260;-88
2023/04/26 05:21:18;;;;;;;9.50;4.38;;;;;;;4.83;64.18;97257.03;4919852;28;20218;-87
2023/04/26 05:23:43;;;;;;;10.18;4.60;;;;;;;5.19;63.63;97286.63;4911044;28;20200;-87
2023/04/26 05:26:14;;;;;;;6.30;3.42;;;;;;;5.50;62.83;97310.91;4884078;28;20294;-87
2023/04/26 05:28:40;;;;;;;5.50;2.50;;;;;;;5.44;62.18;97305.56;4925870;28;20255;-87
2023/04/26 05:31:06;;;;;;;3.20;2.45;;;;;;;5.49;61.90;97311.91;4944185;28;20246;-87
2023/04/26 05:33:31;;;;;;;4.10;2.17;;;;;;;5.43;61.72;97306.59;4905642;28;20209;-88
2023/04/26 05:35:57;;;;;;;3.08;2.22;;;;;;;5.16;61.54;97258.69;4956549;28;20207;-87
2023/04/26 05:38:23;;;;;;;3.65;2.25;;;;;;;5.53;61.33;97315.66;4924787;28;20193;-87
2023/04/26 05:40:48;;;;;;;4.93;2.35;;;;;;;5.50;61.41;97309.13;4907538;28;20179;-87
2023/04/26 05:43:14;;;;;;;6.88;2.90;;;;;;;5.41;60.95;97289.69;4891440;28;20301;-87
2023/04/26 05:45:40;;;;;;;4.50;2.35;;;;;;;5.32;61.28;97268.50;4909593;28;20203;-87
2023/04/26 05:48:05;;;;;;;4.13;2.42;;;;;;;5.63;61.91;97321.94;4899941;28;20184;-87
2023/04/26 05:50:31;;;;;;;4.10;2.38;;;;;;;5.76;62.00;97328.03;4947331;28;20637;-86
2023/04/26 05:52:57;;;;;;;4.28;2.35;;;;;;;5.55;61.23;97288.63;4927813;28;20289;-87
2023/04/26 05:55:22;;;;;;;4.68;2.25;;;;;;;5.97;61.70;97330.28;4934983;28;20217;-87
2023/04/26 05:57:47;;;;;;;3.13;2.25;;;;;;;6.16;60.96;97325.16;4915110;28;20348;-87
2023/04/26 06:00:14;;;;;;;3.90;2.40;;;;;;;6.13;60.23;97292.75;4885309;28;20294;-87
2023/04/26 06:02:40;;;;;;;3.45;2.75;;;;;;;6.55;60.04;97336.94;4908903;28;20267;-87
2023/04/26 06:05:06;;;;;;;2.83;2.10;;;;;;;6.65;59.94;97333.88;4928278;28;20673;-87
2023/04/26 06:07:31;;;;;;;4.00;2.30;;;;;;;6.75;60.01;97325.59;4896733;28;20220;-86
2023/04/26 06:09:57;;;;;;;5.53;2.70;;;;;;;6.85;59.37;97325.88;4894587;28;20245;-86
2023/04/26 06:12:22;;;;;;;3.90;2.60;;;;;;;6.94;59.57;97327.19;4886081;28;20202;-86
2023/04/26 06:14:47;;;;;;;4.32;2.88;;;;;;;6.99;58.83;97311.00;4891781;28;20107;-86
2023/04/26 06:17:13;;;;;;;3.45;2.13;;;;;;;7.22;58.40;97323.25;4884406;28;20099;-86
2023/04/26 06:19:38;;;;;;;2.60;2.10;;;;;;;7.49;57.66;97330.69;4941979;28;20271;-86
2023/04/26 06:22:04;;;;;;;3.50;2.47;;;;;;;7.44;57.31;97312.44;4928126;28;20640;-86
2023/04/26 06:24:29;;;;;;;2.83;1.73;;;;;;;7.73;57.29;97333.34;4900421;28;20646;-86
2023/04/26 06:26:55;;;;;;;4.40;1.95;;;;;;;7.81;57.34;97325.25;4897861;28;20648;-86
2023/04/26 06:29:20;;;;;;;4.60;2.13;;;;;;;8.09;57.28;97337.59;4884621;28;20288;-86
2023/04/26 06:31:45;;;;;;;6.57;3.25;;;;;;;8.26;58.67;97322.16;4914163;28;20192;-86
2023/04/26 06:34:11;;;;;;;6.47;3.67;;;;;;;8.41;57.88;97303.53;4910807;28;20061;-85
2023/04/26 06:36:36;;;;;;;8.00;6.00;;;;;;;8.60;58.62;97327.56;4902156;28;20653;-85
2023/04/26 06:39:02;;;;;;;9.05;5.95;;;;;;;8.77;58.59;97338.84;4887051;28;20200;-85
2023/04/26 06:41:28;;;;;;;8.45;5.45;;;;;;;8.80;57.34;97322.03;4920866;28;20227;-85
2023/04/26 06:43:53;;;;;;;6.45;4.38;;;;;;;8.98;56.75;97323.69;4941802;28;20593;-85
2023/04/26 06:46:19;;;;;;;8.13;3.55;;;;;;;9.17;53.66;97313.91;4934709;28;20183;-85
2023/04/26 06:48:44;;;;;;;5.15;3.40;;;;;;;9.26;54.78;97303.94;4889691;28;20220;-85
2023/04/26 06:51:10;;;;;;;6.13;3.03;;;;;;;9.57;54.09;97300.84;4923001;28;20160;-85
2023/04/26 06:53:35;;;;;;;4.45;2.85;;;;;;;9.77;53.74;97325.63;4907317;28;20211;-85
2023/04/26 06:56:01;;;;;;;5.60;2.38;;;;;;;9.82;53.63;97309.28;4919303;28;20247;-86
2023/04/26 06:58:26;;;;;;;4.80;2.63;;;;;;;10.02;52.95;97322.63;4884878;28;20145;-84
2023/04/26 07:00:51;;;;;;;5.43;3.55;;;;;;;10.27;52.69;97324.81;4912927;28;20652;-84
2023/04/26 07:03:17;;;;;;;5.20;2.60;;;;;;;10.29;51.28;97295.97;4897893;28;20105;-84
2023/04/26 07:05:42;;;;;;;4.43;2.30;;;;;;;10.43;50.69;97312.06;4909647;28;20187;-84
2023/04/26 07:08:08;;;;;;;4.15;2.67;;;;;;;10.48;49.34;97318.13;4881066;28;20335;-83
2023/04/26 07:10:33;;;;;;;5.85;2.38;;;;;;;10.53;49.81;97327.81;4944983;28;20218;-84
2023/04/26 07:12:59;;;;;;;5.13;2.47;;;;;;;10.30;49.65;97328.78;4888329;28;20289;-84
2023/04/26 07:15:24;;;;;;;2.90;2.08;;;;;;;10.52;49.02;97328.88;4880523;28;20399;-83
2023/04/26 07:17:50;;;;;;;5.47;2.55;;;;;;;10.93;49.26;97326.75;4896150;28;20336;-84
2023/04/26 07:20:18;;;;;;;2.33;1.55;;;;;;;11.29;47.79;97319.34;4912589;28;20191;-84
2023/04/26 07:22:44;;;;;;;6.00;2.53;;;;;;;11.74;47.38;97323.44;4938459;28;20381;-83
2023/04/26 07:25:10;;;;;;;4.63;2.00;;;;;;;11.32;47.21;97324.06;4904064;28;20104;-84
2023/04/26 07:27:35;;;;;;;2.70;1.88;;;;;;;11.38;47.00;97317.88;4944021;28;20373;-83
2023/04/26 07:30:01;;;;;;;8.20;3.13;;;;;;;11.50;46.81;97322.16;4927796;28;20247;-83
2023/04/26 07:32:26;;;;;;;4.50;2.40;;;;;;;12.08;45.91;97322.41;4881943;28;20732;-84
2023/04/26 07:34:52;;;;;;;4.70;2.10;;;;;;;12.63;43.77;97328.22;4889635;28;20629;-83
2023/04/26 07:37:17;;;;;;;4.80;2.25;;;;;;;12.69;42.53;97317.56;4910417;28;20194;-83
2023/04/26 07:39:43;;;;;;;6.28;3.83;;;;;;;12.95;43.77;97324.72;4887511;28;20209;-83
2023/04/26 07:42:08;;;;;;;2.95;2.10;;;;;;;12.76;43.15;97309.50;4891318;28;20202;-83
2023/04/26 07:44:33;;;;;;;3.10;1.90;;;;;;;13.09;42.93;97312.75;4943682;28;20189;-83
2023/04/26 07:46:59;;;;;;;4.43;2.40;;;;;;;13.21;41.40;97304.69;4938199;28;20192;-83
2023/04/26 07:49:24;;;;;;;3.83;2.10;;;;;;;13.21;42.12;97305.50;4893747;28;20200;-82
2023/04/26 07:51:50;;;;;;;5.32;2.63;;;;;;;13.00;42.23;97315.06;4887345;28;20214;-83
2023/04/26 07:54:16;;;;;;;2.75;2.20;;;;;;;13.02;41.97;97313.00;4911350;28;20199;-82
2023/04/26 07:56:41;;;;;;;3.30;2.03;;;;;;;13.20;42.55;97308.34;4925206;28;20486;-83
2023/04/26 07:59:07;;;;;;;2.92;1.75;;;;;;;12.97;41.99;97322.66;4915398;28;20649;-83
2023/04/26 08:01:33;;;;;;;3.70;2.20;;;;;;;12.67;42.01;97321.47;4890851;28;20194;-82
2023/04/26 08:03:58;;;;;;;3.55;2.00;;;;;;;12.73;42.17;97317.84;4934297;28;20904;-83
2023/04/26 08:06:23;;;;;;;4.53;2.15;;;;;;;12.60;42.38;97315.72;4914468;28;20438;-83
2023/04/26 08:08:49;;;;;;;5.18;1.70;;;;;;;12.49;43.07;97315.66;4898180;28;20250;-83
2023/04/26 08:11:15;;;;;;;3.47;1.63;;;;;;;12.60;42.28;97334.78;4944808;28;20246;-83
2023/04/26 08:13:45;;;;;;;4.47;2.17;;;;;;;12.44;42.29;97318.22;4930782;28;20307;-83
2023/04/26 08:16:11;;;;;;;3.83;1.73;;;;;;;12.41;41.03;97331.78;4900083;28;20709;-83
2023/04/26 08:18:36;;;;;;;4.22;2.13;;;;;;;12.27;40.61;97321.00;4929285;28;20193;-84
2023/04/26 08:21:02;;;;;;;3.45;1.98;;;;;;;12.08;43.45;97314.56;4901196;28;20027;-83
2023/04/26 08:23:28;;;;;;;6.13;2.60;;;;;;;12.28;43.53;97313.94;4928064;28;20038;-82
2023/04/26 08:25:54;;;;;;;5.93;2.10;;;;;;;12.42;42.02;97322.13;4944730;28;20395;-83
2023/04/26 08:28:20;;;;;;;9.25;2.38;;;;;;;12.32;43.23;97320.22;4927855;28;20109;-83
2023/04/26 08:30:45;;;;;;;6.32;2.45;;;;;;;12.36;42.65;97321.31;4941831;28;20590;-83
2023/04/26 08:33:11;;;;;;;3.72;2.03;;;;;;;12.44;41.78;97322.66;4920075;28;20033;-81
2023/04/26 08:35:36;;;;;;;6.38;2.35;;;;;;;12.43;43.36;97319.25;4926663;28;20853;-83
2023/04/26 08:38:02;;;;;;;4.40;2.95;;;;;;;12.46;41.91;97310.94;4950435;28;20343;-82
2023/04/26 08:40:27;;;;;;;4.25;1.85;;;;;;;12.52;41.53;97309.91;4926141;28;20030;-82
2023/04/26 08:42:52;;;;;;;3.67;1.95;;;;;;;12.41;41.76;97308.28;4900336;28;20743;-81
2023/04/26 08:45:20;;;;;;;4.30;1.98;;;;;;;12.69;41.57;97309.72;4927125;28;20715;-82
2023/04/26 08:47:49;;;;;;;4.93;2.03;;;;;;;12.87;40.87;97298.06;4959641;28;20030;-83
2023/04/26 08:50:20;;;;;;;5.90;3.20;;;;;;;12.94;41.03;97303.06;4926058;28;20089;-84
2023/04/26 08:52:51;;;;;;;3.97;1.90;;;;;;;13.00;42.10;97298.63;4931098;28;20034;-83
2023/04/26 08:55:18;;;;;;;4.90;2.00;;;;;;;13.29;39.25;97299.72;4917742;28;20030;-82
2023/04/26 08:57:48;;;;;;;3.92;2.03;;;;;;;13.79;40.16;97307.94;4903271;28;20761;-83
2023/04/26 09:00:15;;;;;;;2.75;1.70;;;;;;;14.13;39.62;97302.16;4921763;28;20062;-83
2023/04/26 09:02:51;;;;;;;2.67;2.25;;;;;;;14.66;37.72;97304.44;4889651;28;20034;-82
2023/04/26 09:05:22;;;;;;;3.90;2.63;;;;;;;14.56;38.71;97299.19;4891319;28;20038;-82
2023/04/26 09:07:48;;;;;;;4.00;1.83;;;;;;;14.91;38.40;97306.19;4906782;28;20441;-82
2023/04/26 09:10:18;;;;;;;2.88;1.67;;;;;;;15.35;37.69;97302.84;4938310;28;20060;-82
2023/04/26 09:12:44;;;;;;;3.65;2.50;;;;;;;15.69;33.42;97296.03;4939213;28;20065;-82
2023/04/26 09:15:10;;;;;;;3.03;1.77;;;;;;;15.86;32.97;97293.03;4937773;28;20061;-83
2023/04/26 09:17:40;;;;;;;4.00;1.92;;;;;;;15.99;32.77;97299.50;4903312;28;20117;-82
2023/04/26 09:20:26;;;;;;;1.95;1.67;;;;;;;16.04;31.54;97304.69;4931969;28;20025;-83
2023/04/26 09:23:12;;;;;;;3.58;1.70;;;;;;;15.32;32.96;97298.13;4940905;28;20072;-83
2023/04/26 09:25:37;;;;;;;2.92;1.88;;;;;;;14.41;33.88;97305.25;4924543;28;20841;-82
2023/04/26 09:28:03;;;;;;;3.50;1.92;;;;;;;14.16;34.14;97300.88;4914931;28;20034;-83
2023/04/26 09:30:29;;;;;;;3.00;1.80;;;;;;;14.04;34.90;97288.81;4940938;28;20057;-82
2023/04/26 09:33:02;;;;;;;4.60;2.05;;;;;;;14.14;36.80;97306.38;4954824;28;20052;-83
2023/04/26 09:35:39;;;;;;;2.55;1.70;;;;;;;14.38;37.60;97301.34;4897301;28;20030;-83
2023/04/26 09:38:11;;;;;;;6.00;2.60;;;;;;;14.18;35.22;97290.91;4888069;28;20120;-82
2023/04/26 09:40:49;;;;;;;5.13;2.13;;;;;;;14.13;37.50;97289.06;4943329;28;20085;-83
2023/04/26 09:43:19;;;;;;;9.48;2.00;;;;;;;14.24;37.55;97297.72;4915851;28;20030;-83
2023/04/26 09:45:49;;;;;;;4.38;1.60;;;;;;;13.99;36.99;97299.31;4907365;28;20033;-82
2023/04/26 09:48:27;;;;;;;3.42;2.05;;;;;;;14.41;38.62;97282.47;4939140;28;20057;-82
2023/04/26 09:50:57;;;;;;;4.88;2.28;;;;;;;14.75;35.46;97287.13;4948641;28;20026;-81
2023/04/26 09:53:41;;;;;;;5.40;2.40;;;;;;;15.47;34.49;97285.94;4900029;28;20040;-81
2023/04/26 09:56:09;;;;;;;2.97;1.45;;;;;;;15.48;34.07;97282.28;4920158;28;20037;-82
2023/04/26 09:58:37;;;;;;;3.45;2.10;;;;;;;15.78;34.98;97286.56;4889150;28;20774;-82
2023/04/26 10:01:03;;;;;;;3.10;2.05;;;;;;;15.44;35.01;97283.88;4921099;28;20636;-82
2023/04/26 10:03:31;;;;;;;3.72;2.15;;;;;;;15.26;37.71;97266.94;4938705;28;20030;-82
2023/04/26 10:05:56;;;;;;;2.88;1.77;;;;;;;15.40;35.26;97283.63;4939631;28;20042;-82
2023/04/26 10:08:22;;;;;;;2.53;2.10;;;;;;;15.44;34.40;97284.66;4945633;28;20034;-82
2023/04/26 10:10:48;;;;;;;2.65;1.52;;;;;;;15.04;36.04;97281.22;4916550;28;20050;-83
2023/04/26 10:13:15;;;;;;;2.45;1.83;;;;;;;15.23;36.15;97284.00;4955547;28;20113;-82
2023/04/26 10:15:40;;;;;;;3.30;1.67;;;;;;;15.04;36.17;97286.47;4906464;28;20030;-82
2023/04/26 10:18:07;;;;;;;5.40;2.10;;;;;;;15.33;35.39;97283.16;4899213;28;20336;-82
2023/04/26 10:20:34;;;;;;;4.57;1.70;;;;;;;15.64;33.39;97288.97;4933832;28;20022;-82
2023/04/26 10:23:00;;;;;;;3.08;1.83;;;;;;;15.90;35.76;97271.22;4885830;28;20030;-82
2023/04/26 10:25:36;;;;;;;5.68;1.95;;;;;;;16.25;34.01;97271.94;4901259;28;20736;-82
2023/04/26 10:28:02;;;;;;;2.55;1.92;;;;;;;16.56;34.41;97276.88;4920633;28;20731;-80
2023/04/26 10:30:27;;;;;;;4.72;2.13;;;;;;;16.36;34.73;97277.88;4910739;28;20120;-81
2023/04/26 10:32:56;;;;;;;3.67;2.05;;;;;;;16.51;34.46;97273.53;4934590;28;20038;-81
2023/04/26 10:35:22;;;;;;;2.75;1.77;;;;;;;16.68;33.20;97260.69;4924238;28;20645;-81
2023/04/26 10:37:59;;;;;;;5.55;2.30;;;;;;;16.65;32.96;97256.78;4935232;28;20044;-82
2023/04/26 10:40:28;;;;;;;2.45;1.70;;;;;;;16.90;32.21;97254.94;4930109;28;20049;-82
2023/04/26 10:43:14;;;;;;;3.47;1.77;;;;;;;16.93;34.39;97257.00;4929883;28;20949;-81
2023/04/26 10:45:47;;;;;;;3.78;2.20;;;;;;;17.26;34.32;97246.56;4919208;28;20243;-80
2023/04/26 10:48:20;;;;;;;3.55;2.22;;;;;;;17.39;32.72;97237.13;4913827;28;20029;-81
2023/04/26 10:51:01;;;;;;;3.25;1.70;;;;;;;17.37;33.95;97231.38;4917953;28;20611;-81
2023/04/26 10:53:30;;;;;;;3.85;2.13;;;;;;;17.17;32.02;97224.56;4900102;28;20030;-81
2023/04/26 10:55:56;;;;;;;2.47;1.65;;;;;;;17.01;31.13;97224.78;4916087;28;20096;-81
2023/04/26 10:58:31;;;;;;;3.47;1.67;;;;;;;17.30;32.32;97221.22;4935842;28;20053;-81
2023/04/26 11:01:03;;;;;;;5.72;2.35;;;;;;;17.70;29.58;97226.91;4936474;28;20034;-82
2023/04/26 11:03:29;;;;;;;4.82;2.00;;;;;;;18.01;29.11;97226.44;4917973;28;20057;-82
2023/04/26 11:05:55;;;;;;;4.05;2.03;;;;;;;17.91;30.97;97235.28;4919685;28;20746;-81
2023/04/26 11:08:31;;;;;;;4.38;1.90;;;;;;;17.72;28.60;97224.00;4918382;28;20041;-81
2023/04/26 11:11:07;;;;;;;3.08;1.85;;;;;;;18.07;28.60;97227.88;4934989;28;20619;-81
2023/04/26 11:13:42;;;;;;;2.20;1.70;;;;;;;17.78;29.44;97213.06;4919132;28;20030;-81
2023/04/26 11:16:12;;;;;;;3.95;1.63;;;;;;;17.70;29.49;97216.38;4951250;28;20682;-81
2023/04/26 11:18:40;;;;;;;2.30;1.65;;;;;;;17.48;30.64;97216.22;4931351;28;20928;-81
2023/04/26 11:21:06;;;;;;;5.03;2.10;;;;;;;16.96;31.64;97208.31;4911500;28;20057;-81
2023/04/26 11:23:32;;;;;;;1.67;1.30;;;;;;;16.71;31.61;97212.81;4943246;28;20049;-81
2023/04/26 11:26:07;;;;;;;2.63;1.98;;;;;;;16.52;31.41;97214.63;4918971;28;20044;-81
2023/04/26 11:28:34;;;;;;;4.80;2.15;;;;;;;16.07;30.96;97210.41;4917541;28;20030;-81
2023/04/26 11:31:00;;;;;;;3.75;1.55;;;;;;;16.38;32.16;97202.19;4924774;28;20026;-81
2023/04/26 11:33:26;;;;;;;2.58;1.70;;;;;;;16.19;32.13;97210.00;4941093;28;20935;-81
2023/04/26 11:35:54;;;;;;;2.38;1.58;;;;;;;16.20;32.81;97195.81;4931216;28;20077;-82
2023/04/26 11:38:27;;;;;;;2.35;1.70;;;;;;;16.48;33.55;97196.00;4939878;28;20985;-82
2023/04/26 11:40:56;;;;;;;2.15;1.50;;;;;;;16.45;31.47;97191.31;4941303;28;20033;-81